sensor_id;sensor_type;location;lat;lon;timestamp;P1;durP1;ratioP1;P2;durP2;ratioP2
23474;SDS011;11910;52.086;21.066;2023-07-08T00:02:04;13.60;;;7.95;;
23474;SDS011;11910;52.086;21.066;2023-07-08T00:06:59;10.88;;;6.07;;
23474;SDS011;11910;52.086;21.066;2023-07-08T00:09:24;14.35;;;7.00;;
23474;SDS011;11910;52.086;21.066;2023-07-08T00:11:50;10.50;;;6.20;;
23474;SDS011;11910;52.086;21.066;2023-07-08T00:14:16;9.98;;;6.85;;
23474;SDS011;11910;52.086;21.066;2023-07-08T00:16:41;14.15;;;7.00;;
23474;SDS011;11910;52.086;21.066;2023-07-08T00:19:08;9.50;;;6.65;;
23474;SDS011;11910;52.086;21.066;2023-07-08T00:21:35;11.85;;;6.57;;
23474;SDS011;11910;52.086;21.066;2023-07-08T00:24:01;12.93;;;6.70;;
23474;SDS011;11910;52.086;21.066;2023-07-08T00:26:28;11.27;;;6.47;;
23474;SDS011;11910;52.086;21.066;2023-07-08T00:28:55;9.38;;;6.65;;
23474;SDS011;11910;52.086;21.066;2023-07-08T00:31:24;11.02;;;7.18;;
23474;SDS011;11910;52.086;21.066;2023-07-08T00:33:50;9.70;;;7.47;;
23474;SDS011;11910;52.086;21.066;2023-07-08T00:36:17;8.07;;;6.50;;
23474;SDS011;11910;52.086;21.066;2023-07-08T00:38:43;12.70;;;6.93;;
23474;SDS011;11910;52.086;21.066;2023-07-08T00:43:53;13.13;;;6.68;;
23474;SDS011;11910;52.086;21.066;2023-07-08T00:49:55;16.63;;;7.97;;
23474;SDS011;11910;52.086;21.066;2023-07-08T00:51:51;10.27;;;7.32;;
23474;SDS011;11910;52.086;21.066;2023-07-08T00:54:17;14.20;;;7.38;;
23474;SDS011;11910;52.086;21.066;2023-07-08T00:59:32;8.98;;;6.25;;
23474;SDS011;11910;52.086;21.066;2023-07-08T01:02:02;9.73;;;6.70;;
23474;SDS011;11910;52.086;21.066;2023-07-08T01:04:33;8.95;;;5.95;;
23474;SDS011;11910;52.086;21.066;2023-07-08T01:07:07;8.05;;;6.18;;
23474;SDS011;11910;52.086;21.066;2023-07-08T01:09:37;8.40;;;6.50;;
23474;SDS011;11910;52.086;21.066;2023-07-08T01:12:52;10.30;;;6.43;;
23474;SDS011;11910;52.086;21.066;2023-07-08T01:17:28;8.43;;;5.97;;
23474;SDS011;11910;52.086;21.066;2023-07-08T01:19:57;11.73;;;6.65;;
23474;SDS011;11910;52.086;21.066;2023-07-08T01:22:24;11.18;;;6.50;;
23474;SDS011;11910;52.086;21.066;2023-07-08T01:24:50;10.75;;;6.40;;
23474;SDS011;11910;52.086;21.066;2023-07-08T01:27:16;10.10;;;6.85;;
23474;SDS011;11910;52.086;21.066;2023-07-08T01:29:44;10.57;;;7.07;;
23474;SDS011;11910;52.086;21.066;2023-07-08T01:32:12;9.43;;;7.13;;
23474;SDS011;11910;52.086;21.066;2023-07-08T01:34:43;9.90;;;6.82;;
23474;SDS011;11910;52.086;21.066;2023-07-08T01:40:29;13.68;;;7.47;;
23474;SDS011;11910;52.086;21.066;2023-07-08T01:42:57;7.75;;;6.13;;
23474;SDS011;11910;52.086;21.066;2023-07-08T01:45:24;9.10;;;6.65;;
23474;SDS011;11910;52.086;21.066;2023-07-08T01:47:56;8.98;;;6.57;;
23474;SDS011;11910;52.086;21.066;2023-07-08T01:50:26;10.43;;;6.57;;
23474;SDS011;11910;52.086;21.066;2023-07-08T01:52:53;11.20;;;7.00;;
23474;SDS011;11910;52.086;21.066;2023-07-08T01:55:21;9.15;;;6.68;;
23474;SDS011;11910;52.086;21.066;2023-07-08T01:57:50;8.68;;;6.72;;
23474;SDS011;11910;52.086;21.066;2023-07-08T02:00:16;11.20;;;6.97;;
23474;SDS011;11910;52.086;21.066;2023-07-08T02:02:42;10.98;;;6.63;;
23474;SDS011;11910;52.086;21.066;2023-07-08T02:05:08;9.27;;;6.65;;
23474;SDS011;11910;52.086;21.066;2023-07-08T02:07:33;8.90;;;6.60;;
23474;SDS011;11910;52.086;21.066;2023-07-08T02:09:59;8.85;;;6.88;;
23474;SDS011;11910;52.086;21.066;2023-07-08T02:12:24;11.05;;;6.82;;
23474;SDS011;11910;52.086;21.066;2023-07-08T02:14:50;9.45;;;6.82;;
23474;SDS011;11910;52.086;21.066;2023-07-08T02:17:15;8.60;;;6.55;;
23474;SDS011;11910;52.086;21.066;2023-07-08T02:19:42;10.68;;;7.22;;
23474;SDS011;11910;52.086;21.066;2023-07-08T02:22:08;11.88;;;7.30;;
23474;SDS011;11910;52.086;21.066;2023-07-08T02:24:34;10.77;;;7.03;;
23474;SDS011;11910;52.086;21.066;2023-07-08T02:27:00;11.18;;;7.85;;
23474;SDS011;11910;52.086;21.066;2023-07-08T02:29:26;10.93;;;6.88;;
23474;SDS011;11910;52.086;21.066;2023-07-08T02:31:51;11.13;;;7.18;;
23474;SDS011;11910;52.086;21.066;2023-07-08T02:34:17;11.07;;;6.40;;
23474;SDS011;11910;52.086;21.066;2023-07-08T02:36:43;7.88;;;6.15;;
23474;SDS011;11910;52.086;21.066;2023-07-08T02:39:09;7.60;;;6.07;;
23474;SDS011;11910;52.086;21.066;2023-07-08T02:41:35;9.63;;;6.63;;
23474;SDS011;11910;52.086;21.066;2023-07-08T02:44:01;14.90;;;6.50;;
23474;SDS011;11910;52.086;21.066;2023-07-08T02:46:27;9.63;;;6.40;;
23474;SDS011;11910;52.086;21.066;2023-07-08T02:48:53;7.63;;;6.82;;
23474;SDS011;11910;52.086;21.066;2023-07-08T02:51:19;7.13;;;6.03;;
23474;SDS011;11910;52.086;21.066;2023-07-08T02:53:44;9.93;;;6.10;;
23474;SDS011;11910;52.086;21.066;2023-07-08T02:56:10;7.07;;;5.85;;
23474;SDS011;11910;52.086;21.066;2023-07-08T02:58:35;9.13;;;6.07;;
23474;SDS011;11910;52.086;21.066;2023-07-08T03:01:01;9.52;;;6.10;;
23474;SDS011;11910;52.086;21.066;2023-07-08T03:03:27;9.43;;;6.03;;
23474;SDS011;11910;52.086;21.066;2023-07-08T03:05:57;10.43;;;6.00;;
23474;SDS011;11910;52.086;21.066;2023-07-08T03:08:24;9.38;;;6.03;;
23474;SDS011;11910;52.086;21.066;2023-07-08T03:10:58;6.85;;;5.88;;
23474;SDS011;11910;52.086;21.066;2023-07-08T03:13:26;6.20;;;5.13;;
23474;SDS011;11910;52.086;21.066;2023-07-08T03:15:52;8.25;;;6.13;;
23474;SDS011;11910;52.086;21.066;2023-07-08T03:18:19;8.00;;;6.07;;
23474;SDS011;11910;52.086;21.066;2023-07-08T03:20:47;10.73;;;6.13;;
23474;SDS011;11910;52.086;21.066;2023-07-08T03:23:13;9.55;;;6.72;;
23474;SDS011;11910;52.086;21.066;2023-07-08T03:25:38;7.25;;;6.18;;
23474;SDS011;11910;52.086;21.066;2023-07-08T03:28:04;8.68;;;6.30;;
23474;SDS011;11910;52.086;21.066;2023-07-08T03:30:40;8.98;;;6.22;;
23474;SDS011;11910;52.086;21.066;2023-07-08T03:33:06;11.00;;;6.65;;
23474;SDS011;11910;52.086;21.066;2023-07-08T03:35:33;8.98;;;6.18;;
23474;SDS011;11910;52.086;21.066;2023-07-08T03:37:58;7.63;;;5.88;;
23474;SDS011;11910;52.086;21.066;2023-07-08T03:40:24;8.35;;;6.70;;
23474;SDS011;11910;52.086;21.066;2023-07-08T03:42:50;9.13;;;6.85;;
23474;SDS011;11910;52.086;21.066;2023-07-08T03:45:15;8.77;;;7.05;;
23474;SDS011;11910;52.086;21.066;2023-07-08T03:47:41;10.55;;;7.57;;
23474;SDS011;11910;52.086;21.066;2023-07-08T03:50:18;8.57;;;6.63;;
23474;SDS011;11910;52.086;21.066;2023-07-08T03:52:45;10.05;;;6.97;;
23474;SDS011;11910;52.086;21.066;2023-07-08T03:55:12;10.38;;;7.25;;
23474;SDS011;11910;52.086;21.066;2023-07-08T03:57:37;10.68;;;7.50;;
23474;SDS011;11910;52.086;21.066;2023-07-08T04:00:03;11.10;;;8.05;;
23474;SDS011;11910;52.086;21.066;2023-07-08T04:02:29;13.30;;;8.20;;
23474;SDS011;11910;52.086;21.066;2023-07-08T04:04:55;9.77;;;6.70;;
23474;SDS011;11910;52.086;21.066;2023-07-08T04:07:21;10.07;;;7.25;;
23474;SDS011;11910;52.086;21.066;2023-07-08T04:09:46;9.35;;;7.18;;
23474;SDS011;11910;52.086;21.066;2023-07-08T04:12:15;10.43;;;7.35;;
23474;SDS011;11910;52.086;21.066;2023-07-08T04:14:41;8.95;;;7.10;;
23474;SDS011;11910;52.086;21.066;2023-07-08T04:17:07;9.38;;;7.45;;
23474;SDS011;11910;52.086;21.066;2023-07-08T04:19:33;9.13;;;7.90;;
23474;SDS011;11910;52.086;21.066;2023-07-08T04:22:01;12.45;;;8.00;;
23474;SDS011;11910;52.086;21.066;2023-07-08T04:24:27;11.70;;;7.60;;
23474;SDS011;11910;52.086;21.066;2023-07-08T04:26:53;10.18;;;8.32;;
23474;SDS011;11910;52.086;21.066;2023-07-08T04:29:20;11.45;;;7.75;;
23474;SDS011;11910;52.086;21.066;2023-07-08T04:31:46;8.88;;;7.75;;
23474;SDS011;11910;52.086;21.066;2023-07-08T04:34:13;11.05;;;7.50;;
23474;SDS011;11910;52.086;21.066;2023-07-08T04:36:39;9.10;;;7.38;;
23474;SDS011;11910;52.086;21.066;2023-07-08T04:39:06;12.73;;;7.40;;
23474;SDS011;11910;52.086;21.066;2023-07-08T04:41:33;11.60;;;7.68;;
23474;SDS011;11910;52.086;21.066;2023-07-08T04:44:08;12.75;;;7.78;;
23474;SDS011;11910;52.086;21.066;2023-07-08T04:46:45;12.65;;;7.03;;
23474;SDS011;11910;52.086;21.066;2023-07-08T04:49:21;8.38;;;6.97;;
23474;SDS011;11910;52.086;21.066;2023-07-08T04:51:47;9.55;;;7.03;;
23474;SDS011;11910;52.086;21.066;2023-07-08T04:54:13;8.10;;;6.68;;
23474;SDS011;11910;52.086;21.066;2023-07-08T04:56:40;13.15;;;6.75;;
23474;SDS011;11910;52.086;21.066;2023-07-08T04:59:11;11.02;;;6.10;;
23474;SDS011;11910;52.086;21.066;2023-07-08T05:01:40;8.52;;;5.97;;
23474;SDS011;11910;52.086;21.066;2023-07-08T05:04:07;10.75;;;6.32;;
23474;SDS011;11910;52.086;21.066;2023-07-08T05:06:34;7.63;;;5.97;;
23474;SDS011;11910;52.086;21.066;2023-07-08T05:09:02;7.05;;;5.75;;
23474;SDS011;11910;52.086;21.066;2023-07-08T05:11:29;9.32;;;5.43;;
23474;SDS011;11910;52.086;21.066;2023-07-08T05:13:55;9.75;;;6.28;;
23474;SDS011;11910;52.086;21.066;2023-07-08T05:16:21;6.63;;;5.72;;
23474;SDS011;11910;52.086;21.066;2023-07-08T05:18:46;7.40;;;5.80;;
23474;SDS011;11910;52.086;21.066;2023-07-08T05:21:12;7.63;;;5.88;;
23474;SDS011;11910;52.086;21.066;2023-07-08T05:23:38;7.18;;;5.63;;
23474;SDS011;11910;52.086;21.066;2023-07-08T05:26:04;11.27;;;6.00;;
23474;SDS011;11910;52.086;21.066;2023-07-08T05:28:35;9.48;;;5.25;;
23474;SDS011;11910;52.086;21.066;2023-07-08T05:31:01;7.25;;;5.47;;
23474;SDS011;11910;52.086;21.066;2023-07-08T05:33:27;13.63;;;5.80;;
23474;SDS011;11910;52.086;21.066;2023-07-08T05:35:54;10.57;;;5.28;;
23474;SDS011;11910;52.086;21.066;2023-07-08T05:38:20;8.55;;;5.40;;
23474;SDS011;11910;52.086;21.066;2023-07-08T05:40:49;7.90;;;5.40;;
23474;SDS011;11910;52.086;21.066;2023-07-08T05:43:16;8.48;;;5.30;;
23474;SDS011;11910;52.086;21.066;2023-07-08T05:45:43;10.13;;;5.32;;
23474;SDS011;11910;52.086;21.066;2023-07-08T05:48:08;7.72;;;5.22;;
23474;SDS011;11910;52.086;21.066;2023-07-08T05:50:34;7.63;;;4.72;;
23474;SDS011;11910;52.086;21.066;2023-07-08T05:53:00;7.45;;;4.47;;
23474;SDS011;11910;52.086;21.066;2023-07-08T05:55:26;9.20;;;4.82;;
23474;SDS011;11910;52.086;21.066;2023-07-08T05:57:51;8.02;;;4.90;;
23474;SDS011;11910;52.086;21.066;2023-07-08T06:00:17;7.78;;;4.63;;
23474;SDS011;11910;52.086;21.066;2023-07-08T06:02:43;9.70;;;5.22;;
23474;SDS011;11910;52.086;21.066;2023-07-08T06:05:08;9.10;;;4.75;;
23474;SDS011;11910;52.086;21.066;2023-07-08T06:07:34;6.38;;;3.65;;
23474;SDS011;11910;52.086;21.066;2023-07-08T06:10:00;6.53;;;3.95;;
23474;SDS011;11910;52.086;21.066;2023-07-08T06:12:26;5.57;;;3.67;;
23474;SDS011;11910;52.086;21.066;2023-07-08T06:14:52;4.72;;;3.58;;
23474;SDS011;11910;52.086;21.066;2023-07-08T06:17:18;5.88;;;3.38;;
23474;SDS011;11910;52.086;21.066;2023-07-08T06:19:44;6.72;;;4.00;;
23474;SDS011;11910;52.086;21.066;2023-07-08T06:22:09;5.10;;;3.58;;
23474;SDS011;11910;52.086;21.066;2023-07-08T06:24:35;5.45;;;3.60;;
23474;SDS011;11910;52.086;21.066;2023-07-08T06:27:01;4.05;;;3.60;;
23474;SDS011;11910;52.086;21.066;2023-07-08T06:29:26;4.13;;;3.72;;
23474;SDS011;11910;52.086;21.066;2023-07-08T06:31:52;5.57;;;3.50;;
23474;SDS011;11910;52.086;21.066;2023-07-08T06:34:19;5.85;;;3.30;;
23474;SDS011;11910;52.086;21.066;2023-07-08T06:36:48;5.00;;;3.17;;
23474;SDS011;11910;52.086;21.066;2023-07-08T06:39:14;5.57;;;3.67;;
23474;SDS011;11910;52.086;21.066;2023-07-08T06:41:39;5.20;;;3.20;;
23474;SDS011;11910;52.086;21.066;2023-07-08T06:44:05;7.68;;;3.25;;
23474;SDS011;11910;52.086;21.066;2023-07-08T06:46:31;5.45;;;3.17;;
23474;SDS011;11910;52.086;21.066;2023-07-08T06:48:56;3.50;;;2.97;;
23474;SDS011;11910;52.086;21.066;2023-07-08T06:51:22;4.43;;;3.03;;
23474;SDS011;11910;52.086;21.066;2023-07-08T06:53:48;6.18;;;3.22;;
23474;SDS011;11910;52.086;21.066;2023-07-08T06:56:13;5.25;;;2.83;;
23474;SDS011;11910;52.086;21.066;2023-07-08T06:58:39;7.25;;;3.20;;
23474;SDS011;11910;52.086;21.066;2023-07-08T07:01:04;7.15;;;3.03;;
23474;SDS011;11910;52.086;21.066;2023-07-08T07:03:30;2.92;;;2.63;;
23474;SDS011;11910;52.086;21.066;2023-07-08T07:05:56;4.53;;;3.20;;
23474;SDS011;11910;52.086;21.066;2023-07-08T07:08:21;6.13;;;3.42;;
23474;SDS011;11910;52.086;21.066;2023-07-08T07:10:47;5.45;;;3.05;;
23474;SDS011;11910;52.086;21.066;2023-07-08T07:13:12;5.57;;;3.35;;
23474;SDS011;11910;52.086;21.066;2023-07-08T07:15:38;5.50;;;2.72;;
23474;SDS011;11910;52.086;21.066;2023-07-08T07:18:04;3.85;;;2.92;;
23474;SDS011;11910;52.086;21.066;2023-07-08T07:20:30;7.07;;;2.42;;
23474;SDS011;11910;52.086;21.066;2023-07-08T07:22:56;3.30;;;2.53;;
23474;SDS011;11910;52.086;21.066;2023-07-08T07:25:22;2.97;;;2.33;;
23474;SDS011;11910;52.086;21.066;2023-07-08T07:27:48;3.00;;;2.25;;
23474;SDS011;11910;52.086;21.066;2023-07-08T07:30:13;4.63;;;2.65;;
23474;SDS011;11910;52.086;21.066;2023-07-08T07:32:40;8.35;;;2.50;;
23474;SDS011;11910;52.086;21.066;2023-07-08T07:35:08;4.38;;;2.50;;
23474;SDS011;11910;52.086;21.066;2023-07-08T07:37:37;3.53;;;2.60;;
23474;SDS011;11910;52.086;21.066;2023-07-08T07:40:04;4.15;;;2.20;;
23474;SDS011;11910;52.086;21.066;2023-07-08T07:42:37;3.97;;;2.20;;
23474;SDS011;11910;52.086;21.066;2023-07-08T07:45:03;4.05;;;1.92;;
23474;SDS011;11910;52.086;21.066;2023-07-08T07:47:29;4.78;;;2.60;;
23474;SDS011;11910;52.086;21.066;2023-07-08T07:49:55;7.35;;;2.47;;
23474;SDS011;11910;52.086;21.066;2023-07-08T07:52:20;4.95;;;2.40;;
23474;SDS011;11910;52.086;21.066;2023-07-08T07:54:49;4.60;;;2.40;;
23474;SDS011;11910;52.086;21.066;2023-07-08T07:57:16;5.80;;;2.35;;
23474;SDS011;11910;52.086;21.066;2023-07-08T07:59:41;3.17;;;2.20;;
23474;SDS011;11910;52.086;21.066;2023-07-08T08:02:07;5.20;;;2.60;;
23474;SDS011;11910;52.086;21.066;2023-07-08T08:04:33;3.95;;;2.33;;
23474;SDS011;11910;52.086;21.066;2023-07-08T08:06:59;2.40;;;2.20;;
23474;SDS011;11910;52.086;21.066;2023-07-08T08:09:25;5.63;;;2.00;;
23474;SDS011;11910;52.086;21.066;2023-07-08T08:11:51;7.05;;;2.50;;
23474;SDS011;11910;52.086;21.066;2023-07-08T08:14:17;7.07;;;2.33;;
23474;SDS011;11910;52.086;21.066;2023-07-08T08:16:43;2.88;;;2.00;;
23474;SDS011;11910;52.086;21.066;2023-07-08T08:19:09;4.00;;;2.30;;
23474;SDS011;11910;52.086;21.066;2023-07-08T08:21:35;4.53;;;2.20;;
23474;SDS011;11910;52.086;21.066;2023-07-08T08:24:00;5.10;;;2.30;;
23474;SDS011;11910;52.086;21.066;2023-07-08T08:26:26;3.50;;;2.40;;
23474;SDS011;11910;52.086;21.066;2023-07-08T08:28:52;4.68;;;2.10;;
23474;SDS011;11910;52.086;21.066;2023-07-08T08:31:18;3.25;;;2.22;;
23474;SDS011;11910;52.086;21.066;2023-07-08T08:33:43;2.60;;;2.10;;
23474;SDS011;11910;52.086;21.066;2023-07-08T08:36:09;3.40;;;2.30;;
23474;SDS011;11910;52.086;21.066;2023-07-08T08:38:34;5.57;;;2.33;;
23474;SDS011;11910;52.086;21.066;2023-07-08T08:41:04;3.38;;;2.00;;
23474;SDS011;11910;52.086;21.066;2023-07-08T08:43:37;3.22;;;2.15;;
23474;SDS011;11910;52.086;21.066;2023-07-08T08:49:26;3.40;;;2.22;;
23474;SDS011;11910;52.086;21.066;2023-07-08T08:51:51;4.10;;;2.38;;
23474;SDS011;11910;52.086;21.066;2023-07-08T08:54:18;4.30;;;2.20;;
23474;SDS011;11910;52.086;21.066;2023-07-08T09:05:03;3.85;;;2.20;;
23474;SDS011;11910;52.086;21.066;2023-07-08T09:07:34;5.32;;;2.47;;
23474;SDS011;11910;52.086;21.066;2023-07-08T09:10:23;4.10;;;2.38;;
23474;SDS011;11910;52.086;21.066;2023-07-08T09:13:15;2.47;;;2.20;;
23474;SDS011;11910;52.086;21.066;2023-07-08T09:16:15;3.63;;;2.22;;
23474;SDS011;11910;52.086;21.066;2023-07-08T09:19:07;4.43;;;2.30;;
23474;SDS011;11910;52.086;21.066;2023-07-08T09:27:07;5.13;;;2.45;;
23474;SDS011;11910;52.086;21.066;2023-07-08T09:29:35;5.28;;;2.58;;
23474;SDS011;11910;52.086;21.066;2023-07-08T09:34:49;5.93;;;2.50;;
23474;SDS011;11910;52.086;21.066;2023-07-08T09:39:58;6.53;;;2.72;;
23474;SDS011;11910;52.086;21.066;2023-07-08T09:42:27;4.40;;;2.53;;
23474;SDS011;11910;52.086;21.066;2023-07-08T09:45:00;6.70;;;2.75;;
23474;SDS011;11910;52.086;21.066;2023-07-08T09:47:33;3.47;;;2.60;;
23474;SDS011;11910;52.086;21.066;2023-07-08T09:50:00;3.90;;;2.50;;
23474;SDS011;11910;52.086;21.066;2023-07-08T09:52:35;3.67;;;2.45;;
23474;SDS011;11910;52.086;21.066;2023-07-08T09:55:02;7.72;;;2.63;;
23474;SDS011;11910;52.086;21.066;2023-07-08T09:57:29;3.80;;;2.40;;
23474;SDS011;11910;52.086;21.066;2023-07-08T10:00:00;2.95;;;2.58;;
23474;SDS011;11910;52.086;21.066;2023-07-08T10:02:33;3.15;;;2.60;;
23474;SDS011;11910;52.086;21.066;2023-07-08T10:05:15;3.08;;;2.53;;
23474;SDS011;11910;52.086;21.066;2023-07-08T10:07:54;2.90;;;2.70;;
23474;SDS011;11910;52.086;21.066;2023-07-08T10:10:30;3.57;;;2.70;;
23474;SDS011;11910;52.086;21.066;2023-07-08T10:13:00;3.38;;;3.08;;
23474;SDS011;11910;52.086;21.066;2023-07-08T10:17:54;4.32;;;3.20;;
23474;SDS011;11910;52.086;21.066;2023-07-08T10:20:20;4.50;;;3.10;;
23474;SDS011;11910;52.086;21.066;2023-07-08T10:22:53;4.20;;;2.85;;
23474;SDS011;11910;52.086;21.066;2023-07-08T10:30:58;3.28;;;2.90;;
23474;SDS011;11910;52.086;21.066;2023-07-08T10:33:43;6.68;;;2.97;;
23474;SDS011;11910;52.086;21.066;2023-07-08T10:36:38;5.00;;;2.92;;
23474;SDS011;11910;52.086;21.066;2023-07-08T10:39:20;4.68;;;3.20;;
23474;SDS011;11910;52.086;21.066;2023-07-08T10:42:27;3.20;;;2.90;;
23474;SDS011;11910;52.086;21.066;2023-07-08T10:47:53;3.83;;;3.20;;
23474;SDS011;11910;52.086;21.066;2023-07-08T11:04:07;3.10;;;2.80;;
23474;SDS011;11910;52.086;21.066;2023-07-08T11:06:56;4.10;;;3.30;;
23474;SDS011;11910;52.086;21.066;2023-07-08T11:09:38;4.10;;;3.35;;
23474;SDS011;11910;52.086;21.066;2023-07-08T11:12:20;3.38;;;2.80;;
23474;SDS011;11910;52.086;21.066;2023-07-08T11:17:30;4.32;;;2.92;;
23474;SDS011;11910;52.086;21.066;2023-07-08T11:20:25;5.75;;;3.20;;
23474;SDS011;11910;52.086;21.066;2023-07-08T11:23:08;2.72;;;2.53;;
23474;SDS011;11910;52.086;21.066;2023-07-08T11:25:54;6.45;;;3.45;;
23474;SDS011;11910;52.086;21.066;2023-07-08T11:28:39;3.67;;;2.88;;
23474;SDS011;11910;52.086;21.066;2023-07-08T11:31:05;4.18;;;2.78;;
23474;SDS011;11910;52.086;21.066;2023-07-08T11:33:31;3.70;;;3.03;;
23474;SDS011;11910;52.086;21.066;2023-07-08T11:35:58;4.13;;;3.17;;
23474;SDS011;11910;52.086;21.066;2023-07-08T11:38:28;6.68;;;3.35;;
23474;SDS011;11910;52.086;21.066;2023-07-08T11:43:25;3.60;;;3.30;;
23474;SDS011;11910;52.086;21.066;2023-07-08T11:45:54;3.72;;;2.97;;
23474;SDS011;11910;52.086;21.066;2023-07-08T11:48:31;3.47;;;3.13;;
23474;SDS011;11910;52.086;21.066;2023-07-08T11:51:14;3.40;;;3.10;;
23474;SDS011;11910;52.086;21.066;2023-07-08T11:56:26;3.70;;;2.80;;
23474;SDS011;11910;52.086;21.066;2023-07-08T12:01:40;5.45;;;2.80;;
23474;SDS011;11910;52.086;21.066;2023-07-08T12:04:17;4.05;;;3.10;;
23474;SDS011;11910;52.086;21.066;2023-07-08T12:07:15;11.95;;;3.55;;
23474;SDS011;11910;52.086;21.066;2023-07-08T12:09:47;5.13;;;3.13;;
23474;SDS011;11910;52.086;21.066;2023-07-08T12:12:16;4.55;;;3.33;;
23474;SDS011;11910;52.086;21.066;2023-07-08T12:14:46;7.30;;;3.30;;
23474;SDS011;11910;52.086;21.066;2023-07-08T12:17:12;5.13;;;3.35;;
23474;SDS011;11910;52.086;21.066;2023-07-08T12:19:39;14.65;;;5.25;;
23474;SDS011;11910;52.086;21.066;2023-07-08T12:22:09;3.97;;;3.33;;
23474;SDS011;11910;52.086;21.066;2023-07-08T12:24:37;3.20;;;2.88;;
23474;SDS011;11910;52.086;21.066;2023-07-08T12:27:03;5.30;;;3.00;;
23474;SDS011;11910;52.086;21.066;2023-07-08T12:29:29;4.68;;;2.78;;
23474;SDS011;11910;52.086;21.066;2023-07-08T12:31:55;3.33;;;3.00;;
23474;SDS011;11910;52.086;21.066;2023-07-08T12:34:21;4.85;;;2.58;;
23474;SDS011;11910;52.086;21.066;2023-07-08T12:36:50;3.45;;;2.95;;
23474;SDS011;11910;52.086;21.066;2023-07-08T12:39:16;3.30;;;3.00;;
23474;SDS011;11910;52.086;21.066;2023-07-08T12:41:43;4.40;;;3.17;;
23474;SDS011;11910;52.086;21.066;2023-07-08T12:44:17;3.90;;;2.85;;
23474;SDS011;11910;52.086;21.066;2023-07-08T12:46:48;5.20;;;3.25;;
23474;SDS011;11910;52.086;21.066;2023-07-08T12:49:17;3.45;;;2.90;;
23474;SDS011;11910;52.086;21.066;2023-07-08T12:51:45;4.60;;;3.00;;
23474;SDS011;11910;52.086;21.066;2023-07-08T12:54:11;6.40;;;3.97;;
23474;SDS011;11910;52.086;21.066;2023-07-08T12:56:39;6.82;;;4.13;;
23474;SDS011;11910;52.086;21.066;2023-07-08T12:59:08;5.32;;;3.50;;
23474;SDS011;11910;52.086;21.066;2023-07-08T13:01:42;9.07;;;4.95;;
23474;SDS011;11910;52.086;21.066;2023-07-08T13:04:10;9.00;;;4.43;;
23474;SDS011;11910;52.086;21.066;2023-07-08T13:06:37;4.75;;;4.00;;
23474;SDS011;11910;52.086;21.066;2023-07-08T13:11:44;4.97;;;3.00;;
23474;SDS011;11910;52.086;21.066;2023-07-08T13:14:11;5.20;;;3.20;;
23474;SDS011;11910;52.086;21.066;2023-07-08T13:16:39;4.90;;;3.90;;
23474;SDS011;11910;52.086;21.066;2023-07-08T13:19:05;6.75;;;3.50;;
23474;SDS011;11910;52.086;21.066;2023-07-08T13:21:31;3.17;;;2.88;;
23474;SDS011;11910;52.086;21.066;2023-07-08T13:23:58;4.10;;;3.00;;
23474;SDS011;11910;52.086;21.066;2023-07-08T13:26:28;6.50;;;2.80;;
23474;SDS011;11910;52.086;21.066;2023-07-08T13:29:02;3.70;;;2.88;;
23474;SDS011;11910;52.086;21.066;2023-07-08T13:31:36;4.72;;;2.90;;
23474;SDS011;11910;52.086;21.066;2023-07-08T13:34:07;3.92;;;3.38;;
23474;SDS011;11910;52.086;21.066;2023-07-08T13:36:36;4.00;;;3.45;;
23474;SDS011;11910;52.086;21.066;2023-07-08T13:39:07;6.90;;;2.88;;
23474;SDS011;11910;52.086;21.066;2023-07-08T13:41:35;3.63;;;2.70;;
23474;SDS011;11910;52.086;21.066;2023-07-08T13:44:05;5.05;;;3.20;;
23474;SDS011;11910;52.086;21.066;2023-07-08T13:51:44;7.32;;;2.72;;
23474;SDS011;11910;52.086;21.066;2023-07-08T13:54:21;3.72;;;2.90;;
23474;SDS011;11910;52.086;21.066;2023-07-08T13:56:49;4.72;;;2.70;;
23474;SDS011;11910;52.086;21.066;2023-07-08T13:59:21;3.00;;;2.70;;
23474;SDS011;11910;52.086;21.066;2023-07-08T14:01:49;4.82;;;3.10;;
23474;SDS011;11910;52.086;21.066;2023-07-08T14:04:21;3.55;;;2.70;;
23474;SDS011;11910;52.086;21.066;2023-07-08T14:06:55;4.60;;;2.90;;
23474;SDS011;11910;52.086;21.066;2023-07-08T14:09:21;6.15;;;3.20;;
23474;SDS011;11910;52.086;21.066;2023-07-08T14:11:47;5.30;;;3.35;;
23474;SDS011;11910;52.086;21.066;2023-07-08T14:14:14;4.40;;;3.13;;
23474;SDS011;11910;52.086;21.066;2023-07-08T14:16:45;3.72;;;3.10;;
23474;SDS011;11910;52.086;21.066;2023-07-08T14:19:19;6.43;;;3.08;;
23474;SDS011;11910;52.086;21.066;2023-07-08T14:21:53;3.67;;;3.00;;
23474;SDS011;11910;52.086;21.066;2023-07-08T14:24:21;6.57;;;3.00;;
23474;SDS011;11910;52.086;21.066;2023-07-08T14:26:46;4.38;;;3.03;;
23474;SDS011;11910;52.086;21.066;2023-07-08T14:32:34;3.53;;;2.80;;
23474;SDS011;11910;52.086;21.066;2023-07-08T14:35:02;3.55;;;2.80;;
23474;SDS011;11910;52.086;21.066;2023-07-08T14:40:12;5.13;;;2.90;;
23474;SDS011;11910;52.086;21.066;2023-07-08T14:42:45;6.20;;;2.78;;
23474;SDS011;11910;52.086;21.066;2023-07-08T14:45:11;3.72;;;3.00;;
23474;SDS011;11910;52.086;21.066;2023-07-08T14:47:37;5.28;;;2.95;;
23474;SDS011;11910;52.086;21.066;2023-07-08T14:50:12;6.47;;;3.08;;
23474;SDS011;11910;52.086;21.066;2023-07-08T14:52:39;7.20;;;2.65;;
23474;SDS011;11910;52.086;21.066;2023-07-08T14:55:05;4.97;;;2.83;;
23474;SDS011;11910;52.086;21.066;2023-07-08T14:57:33;5.78;;;3.10;;
23474;SDS011;11910;52.086;21.066;2023-07-08T15:00:05;4.28;;;2.92;;
23474;SDS011;11910;52.086;21.066;2023-07-08T15:02:31;5.70;;;3.05;;
23474;SDS011;11910;52.086;21.066;2023-07-08T15:05:00;6.38;;;2.35;;
23474;SDS011;11910;52.086;21.066;2023-07-08T15:07:26;4.03;;;3.25;;
23474;SDS011;11910;52.086;21.066;2023-07-08T15:09:52;5.00;;;2.70;;
23474;SDS011;11910;52.086;21.066;2023-07-08T15:12:17;4.03;;;2.50;;
23474;SDS011;11910;52.086;21.066;2023-07-08T15:14:46;8.65;;;3.85;;
23474;SDS011;11910;52.086;21.066;2023-07-08T15:17:15;7.65;;;3.63;;
23474;SDS011;11910;52.086;21.066;2023-07-08T15:19:42;7.82;;;3.20;;
23474;SDS011;11910;52.086;21.066;2023-07-08T15:22:08;13.73;;;4.20;;
23474;SDS011;11910;52.086;21.066;2023-07-08T15:24:34;14.77;;;5.35;;
23474;SDS011;11910;52.086;21.066;2023-07-08T15:27:00;4.70;;;2.97;;
23474;SDS011;11910;52.086;21.066;2023-07-08T15:29:28;10.95;;;4.35;;
23474;SDS011;11910;52.086;21.066;2023-07-08T15:31:55;5.65;;;2.90;;
23474;SDS011;11910;52.086;21.066;2023-07-08T15:34:21;6.93;;;3.33;;
23474;SDS011;11910;52.086;21.066;2023-07-08T15:36:47;3.72;;;2.70;;
23474;SDS011;11910;52.086;21.066;2023-07-08T15:39:14;7.60;;;4.13;;
23474;SDS011;11910;52.086;21.066;2023-07-08T15:41:40;3.72;;;2.65;;
23474;SDS011;11910;52.086;21.066;2023-07-08T15:44:10;3.13;;;2.70;;
23474;SDS011;11910;52.086;21.066;2023-07-08T15:46:42;4.13;;;2.45;;
23474;SDS011;11910;52.086;21.066;2023-07-08T15:49:14;5.80;;;2.60;;
23474;SDS011;11910;52.086;21.066;2023-07-08T15:51:42;5.30;;;2.63;;
23474;SDS011;11910;52.086;21.066;2023-07-08T15:54:09;2.75;;;2.55;;
23474;SDS011;11910;52.086;21.066;2023-07-08T15:56:36;5.43;;;2.70;;
23474;SDS011;11910;52.086;21.066;2023-07-08T15:59:02;4.93;;;2.70;;
23474;SDS011;11910;52.086;21.066;2023-07-08T16:01:29;4.10;;;2.63;;
23474;SDS011;11910;52.086;21.066;2023-07-08T16:03:55;5.00;;;3.00;;
23474;SDS011;11910;52.086;21.066;2023-07-08T16:06:20;5.28;;;2.80;;
23474;SDS011;11910;52.086;21.066;2023-07-08T16:08:47;5.38;;;2.83;;